Time;durP1;ratioP1;P1;durP2;ratioP2;P2;SDS_P1;SDS_P2;PMS_P1;PMS_P2;Temp;Humidity;BMP_temperature;BMP_pressure;BME280_temperature;BME280_humidity;BME280_pressure;Samples;Min_cycle;Max_cycle;Signal;HPM_P1;HPM_P2
2021/12/25 00:02:23;;;;;;;;;50.00;42.00;;;;;10.46;80.85;99952.34;5077990;28;45552;-70
2021/12/25 00:04:49;;;;;;;;;51.50;40.50;;;;;10.38;80.86;99940.22;5074593;28;45300;-70
2021/12/25 00:07:15;;;;;;;;;46.25;38.00;;;;;10.36;80.72;99936.75;5075106;28;45352;-71
2021/12/25 00:09:40;;;;;;;;;40.00;34.00;;;;;10.48;80.75;99951.47;5077413;28;45264;-71
2021/12/25 00:12:06;;;;;;;;;46.00;38.25;;;;;10.40;80.50;99927.97;5078786;28;45447;-71
2021/12/25 00:14:32;;;;;;;;;42.50;36.00;;;;;10.40;80.56;99930.59;5079597;28;45492;-69
2021/12/25 00:16:58;;;;;;;;;48.25;41.25;;;;;10.49;81.06;99937.50;5075533;28;45600;-71
2021/12/25 00:19:24;;;;;;;;;47.75;39.00;;;;;10.49;80.83;99934.03;5074387;28;45556;-71
2021/12/25 00:21:50;;;;;;;;;40.50;36.00;;;;;10.50;80.40;99933.97;5074683;28;45705;-70
2021/12/25 00:24:16;;;;;;;;;41.75;35.75;;;;;10.57;80.67;99938.28;5076392;28;45385;-70
2021/12/25 00:29:37;;;;;;;;;40.75;35.75;;;;;10.59;80.36;99928.66;5078849;28;45359;-70
2021/12/25 00:34:49;;;;;;;;;45.50;38.00;;;;;10.58;80.31;99918.19;5075642;28;45345;-70
2021/12/25 00:37:16;;;;;;;;;45.00;38.50;;;;;10.58;80.20;99913.84;5073983;28;45456;-70
2021/12/25 00:39:43;;;;;;;;;40.25;34.75;;;;;10.53;79.92;99889.44;5074867;27;45289;-69
2021/12/25 00:42:10;;;;;;;;;41.25;35.00;;;;;10.62;79.97;99904.19;5074710;28;46452;-69
2021/12/25 00:44:37;;;;;;;;;36.75;32.50;;;;;10.60;80.12;99896.31;5076770;28;45551;-69
2021/12/25 00:47:04;;;;;;;;;44.25;34.50;;;;;10.58;79.87;99892.00;5072821;28;45390;-70
2021/12/25 00:49:30;;;;;;;;;42.75;35.50;;;;;10.59;80.13;99894.59;5074451;28;45459;-71
2021/12/25 00:51:56;;;;;;;;;44.00;35.25;;;;;10.53;80.18;99885.94;5073414;28;45424;-70
2021/12/25 00:54:22;;;;;;;;;46.50;36.75;;;;;10.47;80.41;99891.28;5073388;28;45326;-70
2021/12/25 00:56:48;;;;;;;;;47.50;37.75;;;;;10.46;80.11;99887.75;5074174;27;45636;-70
2021/12/25 00:59:14;;;;;;;;;40.25;33.75;;;;;10.50;80.33;99907.81;5074842;28;45340;-69
2021/12/25 01:01:40;;;;;;;;;50.00;40.25;;;;;10.34;79.93;99883.53;5074714;28;46103;-70
2021/12/25 01:04:06;;;;;;;;;55.50;43.00;;;;;10.47;79.83;99904.38;5074374;28;45447;-71
2021/12/25 01:06:32;;;;;;;;;48.75;39.50;;;;;10.42;80.23;99916.59;5074699;28;45379;-70
2021/12/25 01:08:57;;;;;;;;;52.25;42.75;;;;;10.33;80.62;99897.50;5075011;28;45408;-68
2021/12/25 01:11:26;;;;;;;;;55.75;41.00;;;;;10.18;80.72;99874.09;5075156;28;45612;-69
2021/12/25 01:13:59;;;;;;;;;45.25;36.50;;;;;10.28;80.68;99891.47;5077059;28;45461;-68
2021/12/25 01:19:24;;;;;;;;;38.75;33.50;;;;;10.40;80.55;99912.28;5075107;28;45434;-73
2021/12/25 01:25:03;;;;;;;;;40.75;34.00;;;;;10.46;80.09;99908.72;5073526;28;45382;-69
2021/12/25 01:30:13;;;;;;;;;45.00;35.00;;;;;10.27;79.46;99896.66;5074229;28;45338;-73
2021/12/25 01:36:36;;;;;;;;;33.00;30.00;;;;;10.13;79.45;99884.63;5076810;28;45581;-69
2021/12/25 01:38:51;;;;;;;;;33.50;30.00;;;;;10.31;79.63;99904.50;5075058;28;45375;-74
2021/12/25 01:41:43;;;;;;;;;32.75;29.75;;;;;10.39;79.44;99917.50;5077434;27;45819;-71
2021/12/25 01:49:35;;;;;;;;;27.25;25.00;;;;;10.35;80.37;99921.06;5081335;28;45403;-70
2021/12/25 01:52:02;;;;;;;;;30.25;24.75;;;;;10.38;79.67;99919.28;5078386;28;45404;-72
2021/12/25 01:54:28;;;;;;;;;30.50;26.50;;;;;10.38;79.76;99923.66;5076863;28;45730;-71
2021/12/25 01:56:54;;;;;;;;;26.00;24.75;;;;;10.43;79.31;99918.38;5077241;28;45748;-70
2021/12/25 01:59:20;;;;;;;;;27.50;22.25;;;;;10.37;79.52;99912.31;5077386;28;45457;-69
2021/12/25 02:01:46;;;;;;;;;25.25;24.75;;;;;10.37;79.53;99906.22;5078834;28;45378;-73
2021/12/25 02:04:12;;;;;;;;;25.25;22.25;;;;;10.38;79.21;99907.94;5080897;28;46459;-71
2021/12/25 02:06:38;;;;;;;;;27.25;23.25;;;;;10.47;79.23;99915.69;5081081;28;45399;-70
2021/12/25 02:09:05;;;;;;;;;24.75;22.75;;;;;10.55;79.30;99924.31;5076081;28;45351;-68
2021/12/25 02:11:31;;;;;;;;;27.75;26.75;;;;;10.57;79.10;99933.03;5076801;28;45600;-72
2021/12/25 02:13:58;;;;;;;;;23.25;21.25;;;;;10.55;78.98;99924.31;5096244;27;45449;-69
2021/12/25 02:16:29;;;;;;;;;25.25;23.75;;;;;10.55;78.90;99924.31;5078824;28;45635;-70
2021/12/25 02:21:25;;;;;;;;;24.25;22.50;;;;;10.63;78.67;99926.00;5076690;27;45358;-70
2021/12/25 02:23:51;;;;;;;;;21.00;17.75;;;;;10.66;78.95;99915.50;5075895;28;45714;-68
2021/12/25 02:26:18;;;;;;;;;17.00;16.25;;;;;10.59;78.40;99909.47;5076657;28;45395;-71
2021/12/25 02:28:44;;;;;;;;;30.25;26.50;;;;;10.67;78.30;99925.09;5077117;28;45361;-69
2021/12/25 02:31:14;;;;;;;;;28.50;24.75;;;;;10.67;78.26;99928.56;5079106;28;45374;-67
2021/12/25 02:33:40;;;;;;;;;23.50;23.25;;;;;10.67;78.63;99922.47;5077604;27;45337;-70
2021/12/25 02:36:07;;;;;;;;;23.50;22.00;;;;;10.66;78.30;99916.38;5077574;28;45700;-69
2021/12/25 02:38:34;;;;;;;;;26.00;23.00;;;;;10.63;78.65;99913.78;5077896;27;45456;-71
2021/12/25 02:41:00;;;;;;;;;24.25;23.00;;;;;10.65;78.59;99905.91;5079485;28;45430;-67
2021/12/25 02:43:26;;;;;;;;;27.25;22.50;;;;;10.65;78.11;99911.13;5081970;28;46642;-65
2021/12/25 02:45:54;;;;;;;;;22.50;21.75;;;;;10.74;78.11;99919.75;5081230;28;45378;-67
2021/12/25 02:48:21;;;;;;;;;25.25;23.25;;;;;10.67;77.97;99901.50;5081484;28;45908;-66
2021/12/25 02:50:47;;;;;;;;;29.50;24.75;;;;;10.74;77.90;99921.50;5081219;27;45378;-67
2021/12/25 02:53:14;;;;;;;;;24.75;24.75;;;;;10.75;77.94;99918.88;5080528;28;45927;-66
2021/12/25 02:55:42;;;;;;;;;24.25;24.00;;;;;10.76;77.81;99912.75;5080449;28;45346;-66
2021/12/25 02:58:08;;;;;;;;;27.75;23.75;;;;;10.72;77.70;99904.94;5079182;28;45384;-73
2021/12/25 03:00:38;;;;;;;;;25.75;25.50;;;;;10.75;78.07;99910.16;5075085;27;45512;-68
2021/12/25 03:03:05;;;;;;;;;27.00;26.00;;;;;10.77;77.94;99905.75;5075927;28;45351;-66
2021/12/25 03:05:31;;;;;;;;;22.25;20.25;;;;;10.79;77.54;99917.94;5074560;28;45493;-67
2021/12/25 03:07:57;;;;;;;;;18.00;15.50;;;;;10.73;77.59;99904.06;5076434;28;45541;-67
2021/12/25 03:10:23;;;;;;;;;26.50;24.00;;;;;10.71;77.90;99897.97;5076155;28;45375;-66
2021/12/25 03:13:16;;;;;;;;;27.50;24.50;;;;;10.80;77.54;99917.06;5075763;28;45401;-67
2021/12/25 03:15:47;;;;;;;;;23.50;21.75;;;;;10.72;77.91;99913.66;5080235;28;45389;-66
2021/12/25 03:18:17;;;;;;;;;23.00;22.00;;;;;10.75;77.89;99920.63;5079629;27;45480;-66
2021/12/25 03:20:45;;;;;;;;;27.75;23.75;;;;;10.73;78.11;99909.31;5079061;28;45443;-67
2021/12/25 03:23:21;;;;;;;;;26.75;21.00;;;;;10.74;77.58;99916.25;5078965;28;46608;-66
2021/12/25 03:25:48;;;;;;;;;19.25;17.75;;;;;10.71;77.91;99914.56;5076512;28;45456;-65
2021/12/25 03:28:17;;;;;;;;;25.25;22.25;;;;;10.70;78.05;99915.44;5075288;28;45476;-66
2021/12/25 03:30:43;;;;;;;;;22.50;21.25;;;;;10.59;78.15;99896.38;5075942;28;45609;-66
2021/12/25 03:33:15;;;;;;;;;24.25;21.00;;;;;10.47;77.94;99871.19;5074932;27;45456;-67
2021/12/25 03:35:41;;;;;;;;;20.50;19.75;;;;;10.68;78.03;99906.75;5076108;28;45486;-75
2021/12/25 03:38:13;;;;;;;;;27.00;20.00;;;;;10.45;77.97;99872.97;5076202;27;45381;-73
2021/12/25 03:40:38;;;;;;;;;24.50;22.75;;;;;10.56;78.08;99918.22;5075954;28;45576;-73
2021/12/25 03:43:05;;;;;;;;;29.25;25.75;;;;;10.60;78.38;99930.38;5075426;28;45401;-69
2021/12/25 03:45:32;;;;;;;;;26.00;24.75;;;;;10.47;78.33;99917.47;5073994;28;45885;-69
2021/12/25 03:48:14;;;;;;;;;24.25;22.50;;;;;10.52;78.21;99920.88;5075616;28;45418;-71
2021/12/25 03:58:54;;;;;;;;;27.50;20.75;;;;;10.44;78.45;99928.84;5074969;28;45919;-71
2021/12/25 04:01:40;;;;;;;;;27.00;24.00;;;;;10.46;78.83;99931.41;5075371;28;45718;-73
2021/12/25 04:04:25;;;;;;;;;23.00;19.25;;;;;10.39;79.07;99927.97;5074799;28;45238;-73
2021/12/25 04:07:08;;;;;;;;;33.25;28.50;;;;;10.43;78.72;99940.16;5089930;27;46100;-77
2021/12/25 04:09:35;;;;;;;;;34.00;29.50;;;;;10.34;78.93;99929.78;5074508;28;45318;-70
2021/12/25 04:12:05;;;;;;;;;29.00;28.50;;;;;10.25;79.53;99929.84;5078204;28;45207;-75
2021/12/25 04:14:31;;;;;;;;;34.25;29.75;;;;;10.33;79.60;99946.38;5074321;28;47169;-77
2021/12/25 04:16:57;;;;;;;;;31.25;30.75;;;;;10.17;79.93;99916.84;5075202;28;45350;-71
2021/12/25 04:19:22;;;;;;;;;36.50;28.50;;;;;10.27;79.02;99942.03;5078822;28;45487;-69
2021/12/25 04:21:55;;;;;;;;;26.50;24.00;;;;;10.26;79.67;99932.44;5075146;27;45448;-76
2021/12/25 04:24:23;;;;;;;;;32.75;28.00;;;;;10.27;79.53;99918.47;5074652;28;46495;-70
2021/12/25 04:26:49;;;;;;;;;30.75;28.25;;;;;10.38;79.44;99931.50;5073408;28;45396;-67
2021/12/25 04:29:35;;;;;;;;;26.75;23.50;;;;;10.44;79.54;99933.16;5075059;28;45796;-67
2021/12/25 05:02:05;;;;;;;;;37.00;32.75;;;;;10.45;79.12;99938.41;5074103;28;45499;-71
2021/12/25 05:04:37;;;;;;;;;35.25;30.75;;;;;10.36;79.38;99934.13;5076158;28;45387;-72
2021/12/25 05:07:05;;;;;;;;;30.25;28.00;;;;;10.36;79.89;99938.50;5083819;28;45726;-68
2021/12/25 05:09:30;;;;;;;;;37.00;32.00;;;;;10.28;79.76;99919.34;5081102;27;45244;-69
2021/12/25 05:11:56;;;;;;;;;28.75;26.75;;;;;10.42;79.69;99940.16;5078541;28;45491;-67
2021/12/25 05:14:21;;;;;;;;;28.00;25.75;;;;;10.35;79.36;99935.00;5080851;28;45397;-71
2021/12/25 05:16:47;;;;;;;;;30.75;28.75;;;;;10.16;79.95;99908.13;5082172;28;46074;-72
2021/12/25 05:19:13;;;;;;;;;40.75;31.75;;;;;10.42;80.36;99945.41;5078677;28;45345;-74
2021/12/25 05:21:38;;;;;;;;;37.25;33.00;;;;;10.40;79.62;99941.06;5078288;28;45356;-72
2021/12/25 05:24:05;;;;;;;;;41.25;34.00;;;;;10.04;80.21;99878.59;5077473;28;45345;-71
2021/12/25 05:26:32;;;;;;;;;39.50;33.75;;;;;10.19;79.96;99908.09;5077039;28;46204;-67
2021/12/25 05:28:59;;;;;;;;;43.25;32.75;;;;;10.33;79.95;99941.16;5077454;28;45518;-69
2021/12/25 05:31:28;;;;;;;;;36.50;32.75;;;;;10.28;80.46;99932.44;5077564;28;45613;-71
2021/12/25 05:33:54;;;;;;;;;38.00;32.75;;;;;10.39;79.70;99944.59;5093166;27;45701;-70
2021/12/25 05:36:20;;;;;;;;;38.50;34.25;;;;;10.38;79.86;99949.81;5077067;28;45883;-68
2021/12/25 05:38:46;;;;;;;;;34.50;32.00;;;;;10.43;79.72;99950.63;5077250;28;45303;-68
2021/12/25 05:41:13;;;;;;;;;38.75;33.25;;;;;10.39;80.23;99946.31;5077410;28;45510;-66
2021/12/25 05:43:39;;;;;;;;;39.25;33.25;;;;;10.34;79.71;99938.50;5077327;28;45613;-70
2021/12/25 05:46:05;;;;;;;;;37.75;32.50;;;;;10.15;79.74;99914.22;5080836;28;45844;-67
2021/12/25 05:48:35;;;;;;;;;34.75;30.75;;;;;10.43;80.08;99949.78;5081417;28;45430;-67
2021/12/25 05:51:05;;;;;;;;;38.50;31.50;;;;;10.43;79.63;99940.16;5080554;28;45867;-69
2021/12/25 05:53:31;;;;;;;;;41.50;33.75;;;;;10.32;80.21;99924.59;5081263;28;45495;-67
2021/12/25 05:55:56;;;;;;;;;39.00;31.50;;;;;10.47;80.08;99939.25;5078182;28;45636;-70
2021/12/25 05:58:22;;;;;;;;;36.50;30.00;;;;;10.47;80.22;99936.66;5079240;28;45558;-67
2021/12/25 06:00:48;;;;;;;;;30.75;30.00;;;;;10.46;79.93;99945.34;5085011;28;45571;-66
2021/12/25 06:03:13;;;;;;;;;31.50;28.75;;;;;10.54;79.82;99948.78;5084423;28;45405;-66
2021/12/25 06:05:39;;;;;;;;;37.75;31.50;;;;;10.58;79.71;99952.22;5078573;28;45468;-67
2021/12/25 06:08:04;;;;;;;;;34.25;30.25;;;;;10.39;79.80;99921.03;5080261;28;45871;-70
2021/12/25 06:10:31;;;;;;;;;33.75;31.25;;;;;10.57;79.92;99953.13;5080245;28;45511;-67
2021/12/25 06:12:59;;;;;;;;;29.75;29.00;;;;;10.53;79.91;99954.88;5080908;28;45380;-69
2021/12/25 06:15:26;;;;;;;;;35.25;30.50;;;;;10.52;79.92;99947.94;5079606;27;45460;-66
2021/12/25 06:17:52;;;;;;;;;35.00;30.25;;;;;10.48;79.93;99951.47;5077170;28;45404;-66
2021/12/25 06:20:18;;;;;;;;;37.00;33.25;;;;;10.51;80.12;99953.16;5077281;28;45471;-67
2021/12/25 06:22:44;;;;;;;;;34.75;29.00;;;;;10.31;80.16;99924.59;5077506;28;45660;-69
2021/12/25 06:25:11;;;;;;;;;37.00;32.50;;;;;10.35;79.66;99935.00;5079476;28;47802;-67
2021/12/25 06:27:37;;;;;;;;;32.50;31.00;;;;;10.22;80.35;99917.66;5078929;28;45702;-71
2021/12/25 06:30:04;;;;;;;;;34.25;30.00;;;;;10.29;80.17;99934.19;5078874;28;45569;-67
2021/12/25 06:32:30;;;;;;;;;36.00;30.00;;;;;10.47;80.47;99964.59;5097788;27;45479;-66
2021/12/25 06:34:55;;;;;;;;;33.50;30.00;;;;;10.47;80.57;99970.69;5079244;28;45512;-66
2021/12/25 06:37:23;;;;;;;;;34.00;28.75;;;;;10.41;79.87;99962.88;5076877;28;45484;-66
2021/12/25 06:39:49;;;;;;;;;36.25;32.00;;;;;10.40;79.84;99961.16;5074769;28;45429;-67
2021/12/25 06:42:15;;;;;;;;;34.75;29.75;;;;;10.48;80.45;99976.78;5067372;28;45798;-68
2021/12/25 06:44:40;;;;;;;;;25.25;24.00;;;;;10.36;80.17;99947.22;5080028;28;45414;-67
2021/12/25 06:47:06;;;;;;;;;31.00;27.50;;;;;10.48;80.45;99961.94;5078620;27;45433;-71
2021/12/25 06:49:32;;;;;;;;;31.75;28.75;;;;;10.41;80.30;99955.00;5076216;27;45378;-67
2021/12/25 06:52:01;;;;;;;;;27.75;25.00;;;;;10.34;79.94;99929.78;5079073;27;45352;-68
2021/12/25 06:54:27;;;;;;;;;34.25;30.00;;;;;10.59;80.20;99974.94;5080045;28;45338;-67
2021/12/25 06:56:54;;;;;;;;;35.50;29.75;;;;;10.59;79.68;99967.94;5079818;28;45371;-74
2021/12/25 06:59:21;;;;;;;;;28.00;26.00;;;;;10.61;79.83;99966.16;5077568;28;45553;-67
2021/12/25 07:01:48;;;;;;;;;25.75;22.00;;;;;10.39;80.23;99934.13;5077841;28;45512;-68
2021/12/25 07:04:14;;;;;;;;;25.25;25.00;;;;;10.64;79.61;99964.41;5076605;28;45390;-71
2021/12/25 07:06:40;;;;;;;;;26.00;20.50;;;;;10.66;79.35;99962.66;5076492;28;45351;-69
2021/12/25 07:09:07;;;;;;;;;29.00;25.25;;;;;10.63;79.39;99960.03;5079302;28;45463;-69
2021/12/25 07:11:34;;;;;;;;;31.50;25.50;;;;;10.54;79.09;99948.78;5076754;28;45333;-67
2021/12/25 07:14:03;;;;;;;;;24.50;22.25;;;;;10.69;79.47;99963.47;5074653;28;47159;-67
2021/12/25 07:16:28;;;;;;;;;25.75;22.50;;;;;10.76;79.67;99972.97;5076378;28;45713;-74
2021/12/25 07:18:54;;;;;;;;;24.75;20.50;;;;;10.73;79.23;99962.56;5077951;28;45224;-75
2021/12/25 07:21:24;;;;;;;;;24.50;23.50;;;;;10.84;79.26;99972.88;5076934;28;45518;-77
2021/12/25 07:23:50;;;;;;;;;28.00;23.75;;;;;10.82;79.02;99966.84;5077375;28;46371;-77
2021/12/25 07:26:19;;;;;;;;;24.25;22.00;;;;;10.87;78.87;99978.13;5076097;27;45445;-69
2021/12/25 07:28:45;;;;;;;;;26.25;23.00;;;;;10.82;78.60;99965.06;5075916;28;45587;-67
2021/12/25 07:31:11;;;;;;;;;25.50;23.25;;;;;10.87;78.47;99975.50;5076007;28;45391;-68
2021/12/25 07:33:37;;;;;;;;;26.50;19.75;;;;;10.89;79.00;99972.84;5074909;28;45896;-66
2021/12/25 07:36:03;;;;;;;;;23.25;20.75;;;;;10.89;78.78;99973.72;5075244;28;45462;-66
2021/12/25 07:38:29;;;;;;;;;26.00;22.50;;;;;10.93;78.66;99972.78;5075559;28;45766;-66
2021/12/25 07:40:54;;;;;;;;;28.25;22.75;;;;;10.92;78.54;99970.22;5076113;27;45870;-67
2021/12/25 07:43:21;;;;;;;;;24.00;22.50;;;;;10.86;78.67;99960.66;5075122;28;45454;-67
2021/12/25 07:45:48;;;;;;;;;30.75;23.25;;;;;10.92;78.45;99980.69;5077075;28;45705;-67
2021/12/25 07:48:18;;;;;;;;;30.75;21.25;;;;;10.88;78.56;99979.84;5079798;27;45486;-66
2021/12/25 07:50:43;;;;;;;;;25.50;20.00;;;;;10.88;78.59;99974.59;5079780;28;45534;-70
2021/12/25 07:53:10;;;;;;;;;32.25;28.25;;;;;10.74;78.70;99966.03;5079090;28;45435;-69
2021/12/25 07:55:37;;;;;;;;;34.50;27.50;;;;;10.81;78.69;99978.19;5074950;27;45526;-68
2021/12/25 07:58:03;;;;;;;;;29.75;26.75;;;;;10.62;78.75;99948.69;5075090;28;45473;-66
2021/12/25 08:00:29;;;;;;;;;33.50;28.25;;;;;10.71;79.28;99976.56;5074297;28;45638;-66
2021/12/25 08:02:55;;;;;;;;;34.50;30.00;;;;;10.42;79.43;99927.97;5074751;28;45600;-67
2021/12/25 08:05:21;;;;;;;;;33.75;29.75;;;;;10.39;79.26;99936.72;5078338;28;45349;-67
2021/12/25 08:07:48;;;;;;;;;27.75;25.00;;;;;10.52;79.63;99961.03;5075060;28;45380;-70
2021/12/25 08:10:16;;;;;;;;;29.25;27.25;;;;;10.60;79.44;99984.50;5075158;28;45647;-67
2021/12/25 08:12:54;;;;;;;;;33.00;28.00;;;;;10.59;79.61;99981.03;5074457;28;45457;-66
2021/12/25 08:15:25;;;;;;;;;36.50;30.25;;;;;10.47;79.65;99970.69;5073506;28;45998;-69
2021/12/25 08:17:52;;;;;;;;;32.00;29.50;;;;;10.65;79.66;99995.78;5074476;27;45381;-70
2021/12/25 08:20:18;;;;;;;;;30.50;29.50;;;;;10.68;79.53;99987.03;5074212;28;45480;-68
2021/12/25 08:22:44;;;;;;;;;37.75;30.25;;;;;10.57;79.39;99988.03;5074547;28;46407;-69
2021/12/25 08:25:12;;;;;;;;;36.75;30.75;;;;;10.66;80.02;99994.94;5074347;28;45328;-67
2021/12/25 08:27:41;;;;;;;;;28.75;28.25;;;;;10.69;79.28;99989.66;5061267;28;45395;-66
2021/12/25 08:30:10;;;;;;;;;33.00;28.25;;;;;10.67;79.86;99986.19;5075179;28;45430;-74
2021/12/25 08:32:40;;;;;;;;;35.25;30.00;;;;;10.67;79.72;99996.66;5074714;28;47079;-78
2021/12/25 08:35:10;;;;;;;;;36.25;31.50;;;;;10.67;79.57;99980.94;5079610;28;45606;-79
2021/12/25 08:37:36;;;;;;;;;33.00;31.25;;;;;10.58;79.31;99987.16;5076495;28;45385;-71
2021/12/25 08:40:06;;;;;;;;;35.50;29.75;;;;;10.55;79.17;99970.59;5075345;28;45556;-68
2021/12/25 08:42:33;;;;;;;;;35.00;29.75;;;;;10.70;79.62;99993.13;5074103;28;46295;-69
2021/12/25 08:47:26;;;;;;;;;33.00;30.00;;;;;10.58;79.37;99981.91;5074495;28;45625;-66
2021/12/25 08:49:52;;;;;;;;;36.75;30.00;;;;;10.66;79.86;100004.53;5073159;27;45470;-67
2021/12/25 08:52:20;;;;;;;;;35.50;28.50;;;;;10.65;79.57;100000.16;5069211;28;46263;-68
2021/12/25 08:54:49;;;;;;;;;32.00;30.00;;;;;10.40;79.21;99964.63;5072975;28;45682;-70
2021/12/25 08:57:21;;;;;;;;;34.50;31.25;;;;;10.71;79.29;100006.22;5073025;28;45580;-72
2021/12/25 08:59:47;;;;;;;;;35.75;32.00;;;;;10.62;79.33;99995.84;5073721;28;45583;-72
2021/12/25 09:02:16;;;;;;;;;31.75;28.50;;;;;10.78;79.45;100001.78;5076323;28;46766;-72
2021/12/25 09:04:44;;;;;;;;;35.00;30.00;;;;;10.81;79.19;100009.59;5073736;27;45602;-72
2021/12/25 09:07:10;;;;;;;;;37.50;32.25;;;;;10.71;79.47;100000.97;5073420;28;45715;-75
2021/12/25 09:09:37;;;;;;;;;36.75;31.50;;;;;10.76;79.53;100009.66;5072748;28;45462;-71
2021/12/25 09:12:04;;;;;;;;;36.75;31.00;;;;;10.79;79.04;100007.00;5073069;28;46558;-68
2021/12/25 09:14:30;;;;;;;;;33.50;30.25;;;;;10.87;79.33;100011.28;5073139;28;45515;-67
2021/12/25 09:17:09;;;;;;;;;32.00;27.00;;;;;10.87;78.92;100013.91;5074363;28;45866;-67
2021/12/25 09:19:57;;;;;;;;;30.00;28.00;;;;;10.89;79.05;100009.53;5075874;28;45456;-74
2021/12/25 09:22:57;;;;;;;;;25.50;25.25;;;;;10.94;78.91;100012.94;5079266;28;45796;-66
2021/12/25 09:25:24;;;;;;;;;28.25;25.50;;;;;10.61;78.92;99960.94;5068909;28;45399;-65
2021/12/25 09:27:50;;;;;;;;;28.50;25.00;;;;;10.95;78.61;100009.47;5075476;28;45455;-66
2021/12/25 09:30:17;;;;;;;;;23.75;21.25;;;;;10.91;78.57;100006.00;5077302;28;45456;-67
2021/12/25 09:32:43;;;;;;;;;28.50;21.25;;;;;11.02;78.75;100021.63;5080164;28;46071;-66
2021/12/25 09:35:10;;;;;;;;;25.75;21.50;;;;;11.08;78.47;100028.53;5080881;28;45474;-66
2021/12/25 09:37:36;;;;;;;;;22.25;20.75;;;;;11.11;78.17;100026.75;5075373;28;45392;-72
2021/12/25 09:40:04;;;;;;;;;26.00;20.25;;;;;10.90;77.35;99988.56;5073886;28;45370;-69
2021/12/25 09:42:30;;;;;;;;;26.00;22.25;;;;;11.12;77.71;100012.75;5073242;28;45780;-67
2021/12/25 09:44:56;;;;;;;;;25.00;20.25;;;;;11.14;77.78;100010.13;5073513;28;45352;-68
2021/12/25 09:47:22;;;;;;;;;24.25;21.25;;;;;11.24;77.25;100030.94;5074380;28;45460;-68
2021/12/25 09:49:49;;;;;;;;;22.75;19.75;;;;;11.11;77.40;100000.53;5074665;28;45318;-69
2021/12/25 09:52:15;;;;;;;;;19.75;17.50;;;;;11.34;77.47;100028.22;5110014;27;46489;-67
2021/12/25 09:54:42;;;;;;;;;27.00;23.00;;;;;11.34;76.91;100023.88;5077471;28;45358;-68
2021/12/25 09:57:07;;;;;;;;;24.25;20.25;;;;;11.24;77.26;99994.25;5076638;28;45287;-66
2021/12/25 09:59:33;;;;;;;;;20.25;18.00;;;;;11.40;76.52;100017.66;5076754;28;45532;-72
2021/12/25 10:02:01;;;;;;;;;21.25;16.50;;;;;11.48;76.70;100021.03;5076450;27;45395;-66
2021/12/25 10:04:41;;;;;;;;;17.50;16.50;;;;;11.40;76.33;100001.94;5076363;28;45812;-67
2021/12/25 10:07:27;;;;;;;;;17.00;16.75;;;;;11.58;76.23;100035.78;5109426;27;45752;-68
2021/12/25 10:10:16;;;;;;;;;15.25;13.50;;;;;11.62;75.67;100028.72;5077327;27;45313;-66
2021/12/25 10:12:51;;;;;;;;;17.25;16.75;;;;;11.49;76.18;100006.19;5108981;27;47615;-67
2021/12/25 10:15:20;;;;;;;;;15.00;13.75;;;;;11.51;75.97;100002.66;5076151;28;45477;-67
2021/12/25 10:17:49;;;;;;;;;21.25;19.00;;;;;11.67;75.73;100026.91;5078469;28;45471;-67
2021/12/25 10:20:24;;;;;;;;;23.00;19.75;;;;;11.68;75.61;100021.66;5080590;28;45423;-69
2021/12/25 10:22:55;;;;;;;;;18.00;14.75;;;;;11.69;75.51;100017.25;5076448;28;45793;-66
2021/12/25 10:25:21;;;;;;;;;20.00;16.25;;;;;11.73;75.51;100015.47;5075777;28;45314;-68
2021/12/25 10:27:55;;;;;;;;;20.25;18.25;;;;;11.71;75.31;100012.88;5076038;28;45455;-66
2021/12/25 10:30:24;;;;;;;;;9.75;9.75;;;;;11.78;75.59;100005.78;5075878;28;45487;-66
2021/12/25 15:21:40;;;;;;;;;57.25;42.25;;;;;9.47;89.63;99958.34;5086729;27;45513;-68
2021/12/25 15:24:13;;;;;;;;;53.00;40.25;;;;;9.65;88.87;99954.72;5071813;28;45464;-67
2021/12/25 15:26:49;;;;;;;;;45.00;35.50;;;;;9.88;87.71;99958.94;5075590;27;45597;-67
2021/12/25 15:29:16;;;;;;;;;39.50;33.25;;;;;10.10;87.33;99968.34;5073272;28;45882;-66
2021/12/25 15:31:42;;;;;;;;;38.75;33.00;;;;;10.26;86.00;99969.09;5070098;27;46309;-69
2021/12/25 15:34:18;;;;;;;;;31.25;30.00;;;;;10.38;85.38;99963.78;5068145;28;45338;-83
2021/12/25 15:36:52;;;;;;;;;38.50;32.25;;;;;10.52;84.88;99966.25;5059053;28;45458;-66
2021/12/25 15:39:25;;;;;;;;;47.50;36.75;;;;;10.63;84.21;99970.50;5068847;27;45589;-70
2021/12/25 15:41:53;;;;;;;;;47.50;39.50;;;;;10.72;83.84;99970.41;5067933;28;45671;-76
2021/12/25 15:44:22;;;;;;;;;46.75;38.75;;;;;10.73;83.38;99964.31;5073557;28;46165;-76
2021/12/25 15:46:51;;;;;;;;;39.50;34.50;;;;;10.81;83.61;99971.19;5065269;27;45492;-67
2021/12/25 15:49:18;;;;;;;;;44.50;38.00;;;;;10.92;82.89;99978.94;5067411;28;45580;-72
2021/12/25 15:51:58;;;;;;;;;45.75;35.75;;;;;10.90;83.00;99967.59;5064259;28;46220;-66
2021/12/25 15:54:25;;;;;;;;;42.25;36.00;;;;;10.81;82.65;99946.75;5067217;28;45440;-67
2021/12/25 15:56:57;;;;;;;;;45.50;37.50;;;;;11.00;82.07;99984.06;5070728;28;45428;-68
2021/12/25 15:59:26;;;;;;;;;42.50;33.00;;;;;11.03;82.13;99984.03;5058599;27;46364;-73
2021/12/25 16:01:52;;;;;;;;;43.75;35.50;;;;;11.07;81.69;99979.63;5064131;28;46076;-69
2021/12/25 16:04:18;;;;;;;;;43.25;35.00;;;;;11.11;81.73;99981.34;5064171;28;45452;-66
2021/12/25 16:06:44;;;;;;;;;44.75;35.75;;;;;11.16;81.75;99977.75;5051248;28;45597;-70
2021/12/25 16:09:10;;;;;;;;;44.50;32.50;;;;;11.11;80.82;99991.81;5077648;27;45330;-72
2021/12/25 16:11:36;;;;;;;;;47.00;36.00;;;;;10.87;80.84;99949.31;5050625;28;45642;-67
2021/12/25 16:14:02;;;;;;;;;39.50;33.75;;;;;11.09;80.81;99983.09;5057107;28;45418;-66
2021/12/25 16:16:29;;;;;;;;;45.00;35.50;;;;;11.17;80.77;99989.09;5062040;28;45651;-65
2021/12/25 16:18:55;;;;;;;;;42.00;33.50;;;;;11.17;80.84;99983.88;5071345;27;45560;-67
2021/12/25 16:21:22;;;;;;;;;40.50;32.50;;;;;11.18;80.75;99990.84;5087375;27;45611;-65
2021/12/25 16:23:48;;;;;;;;;34.50;31.25;;;;;11.17;81.02;99981.25;5088809;27;45450;-67
2021/12/25 16:26:15;;;;;;;;;41.75;33.25;;;;;11.23;81.05;99992.53;5088517;27;45656;-66
2021/12/25 16:28:41;;;;;;;;;36.75;30.75;;;;;11.28;80.95;100000.34;5084917;27;45693;-67
2021/12/25 16:31:08;;;;;;;;;42.50;34.00;;;;;11.19;80.41;99976.84;5083935;27;45497;-68
2021/12/25 16:33:34;;;;;;;;;41.50;32.50;;;;;11.30;80.26;100001.19;5074714;28;45534;-67
2021/12/25 16:36:00;;;;;;;;;38.75;32.50;;;;;11.29;80.46;99983.69;5078150;28;45505;-68
2021/12/25 16:38:26;;;;;;;;;37.75;32.50;;;;;11.25;80.48;99980.28;5079134;28;45486;-66
2021/12/25 16:40:52;;;;;;;;;33.25;29.75;;;;;11.32;80.38;99991.56;5076848;28;45640;-67
2021/12/25 16:43:19;;;;;;;;;34.75;31.25;;;;;11.22;79.93;99975.06;5074498;28;45342;-67
2021/12/25 16:45:46;;;;;;;;;41.75;33.25;;;;;11.20;80.47;99974.22;5074868;28;45513;-66
2021/12/25 16:48:12;;;;;;;;;38.25;30.00;;;;;11.33;80.48;99997.66;5074089;28;45619;-68
2021/12/25 16:50:38;;;;;;;;;33.50;29.50;;;;;11.32;80.39;99990.66;5074178;28;45946;-66
2021/12/25 16:53:05;;;;;;;;;34.50;31.75;;;;;11.30;79.97;99993.31;5074717;28;45520;-67
2021/12/25 16:55:33;;;;;;;;;28.75;28.75;;;;;11.32;79.76;99988.94;5075026;28;45842;-78
2021/12/25 16:57:59;;;;;;;;;13.25;9.50;;;;;11.27;79.98;99975.03;5077122;28;45590;-66
2021/12/25 17:00:27;;;;;;;;;31.25;27.00;;;;;11.40;80.23;99996.69;5073947;28;46115;-76
2021/12/25 17:02:59;;;;;;;;;30.75;27.00;;;;;11.25;80.11;99959.31;5072851;28;45592;-66
2021/12/25 17:05:26;;;;;;;;;37.75;29.25;;;;;11.32;79.27;99983.69;5073732;28;45712;-65
2021/12/25 17:07:52;;;;;;;;;30.75;28.50;;;;;11.26;79.95;99981.13;5074635;28;45494;-66
2021/12/25 17:10:18;;;;;;;;;31.25;28.75;;;;;11.34;79.70;99999.38;5073032;28;45465;-66
2021/12/25 17:12:43;;;;;;;;;33.25;30.25;;;;;11.32;80.14;100007.28;5073881;28;45909;-66
2021/12/25 17:15:15;;;;;;;;;26.25;23.75;;;;;11.31;80.20;100000.28;5073907;28;45499;-65
2021/12/25 17:17:44;;;;;;;;;32.75;29.50;;;;;11.22;79.90;99989.91;5074467;28;45481;-67